Time;durP1;ratioP1;P1;durP2;ratioP2;P2;SDS_P1;SDS_P2;PMS_P1;PMS_P2;Temp;Humidity;BMP_temperature;BMP_pressure;BME280_temperature;BME280_humidity;BME280_pressure;Samples;Min_cycle;Max_cycle;Signal;HPM_P1;HPM_P2
2023/10/13 00:01:24;;;;;;;11.85;8.57;;;;;;;19.23;68.75;98942.00;5092838;28;20439;-46
2023/10/13 00:03:54;;;;;;;11.55;8.80;;;;;;;19.22;68.97;98935.09;5093192;28;20024;-47
2023/10/13 00:06:20;;;;;;;12.07;9.00;;;;;;;19.27;69.61;98936.97;5091683;28;20063;-47
2023/10/13 00:08:46;;;;;;;13.93;8.65;;;;;;;19.35;70.20;98939.19;5093138;28;20016;-47
2023/10/13 00:11:13;;;;;;;13.38;8.50;;;;;;;19.63;69.72;98934.66;5093003;28;20031;-48
2023/10/13 00:13:43;;;;;;;11.98;9.38;;;;;;;19.83;68.95;98942.03;5092968;28;20031;-47
2023/10/13 00:16:10;;;;;;;36.33;11.02;;;;;;;19.97;68.72;98943.22;5092926;28;20039;-47
2023/10/13 00:18:42;;;;;;;17.15;9.13;;;;;;;20.24;68.29;98944.97;5092693;28;20036;-47
2023/10/13 00:21:19;;;;;;;14.30;8.73;;;;;;;20.30;66.95;98942.09;5091517;28;20028;-47
2023/10/13 00:23:55;;;;;;;15.85;8.25;;;;;;;20.27;66.64;98937.28;5092830;28;20665;-47
2023/10/13 00:26:27;;;;;;;11.27;8.90;;;;;;;20.25;66.34;98939.41;5092696;28;20107;-47
2023/10/13 00:31:42;;;;;;;12.38;8.43;;;;;;;19.91;66.58;98942.38;5092672;28;20039;-47
2023/10/13 00:34:18;;;;;;;12.93;8.73;;;;;;;19.72;67.48;98941.97;5092499;28;20497;-46
2023/10/13 00:37:11;;;;;;;11.43;9.07;;;;;;;19.58;68.49;98940.75;5092533;28;20028;-47
2023/10/13 00:39:36;;;;;;;14.73;9.68;;;;;;;19.57;69.90;98939.13;5092381;28;20044;-46
2023/10/13 00:42:07;;;;;;;10.90;9.90;;;;;;;19.53;70.54;98944.16;5092303;28;20020;-47
2023/10/13 00:44:44;;;;;;;17.27;9.77;;;;;;;19.51;70.96;98938.28;5092996;28;20072;-47
2023/10/13 00:47:16;;;;;;;11.25;9.60;;;;;;;19.51;71.02;98943.59;5092323;28;20028;-46
2023/10/13 00:49:47;;;;;;;14.05;9.75;;;;;;;19.50;71.24;98951.84;5091419;28;20028;-47
2023/10/13 00:52:18;;;;;;;12.10;9.77;;;;;;;19.55;71.23;98946.56;5092318;28;20028;-47
2023/10/13 00:54:48;;;;;;;13.35;9.30;;;;;;;19.62;71.58;98943.69;5092238;28;20110;-47
2023/10/13 00:57:30;;;;;;;10.93;8.80;;;;;;;19.60;71.57;98933.31;5091293;28;20061;-47
2023/10/13 00:59:57;;;;;;;14.57;9.60;;;;;;;19.59;71.81;98937.00;5092179;28;20032;-47
2023/10/13 01:05:09;;;;;;;13.48;9.25;;;;;;;19.68;71.68;98919.53;5092590;28;20036;-47
2023/10/13 01:07:38;;;;;;;14.88;9.98;;;;;;;19.75;71.97;98928.13;5090830;28;20028;-47
2023/10/13 01:10:05;;;;;;;18.63;16.63;;;;;;;19.73;72.16;98932.91;5092031;28;20020;-47
2023/10/13 01:12:31;;;;;;;9.95;8.95;;;;;;;19.84;72.26;98927.66;5091417;28;20043;-47
2023/10/13 01:14:57;;;;;;;11.88;9.00;;;;;;;19.96;71.64;98930.97;5092027;28;20474;-47
2023/10/13 01:17:23;;;;;;;12.05;8.90;;;;;;;19.89;71.53;98927.69;5091904;28;20024;-46
2023/10/13 01:19:49;;;;;;;12.80;9.48;;;;;;;19.86;72.48;98922.88;5091736;28;20044;-46
2023/10/13 01:22:15;;;;;;;14.93;9.32;;;;;;;19.82;72.38;98927.09;5091854;28;20067;-47
2023/10/13 01:24:41;;;;;;;13.20;9.55;;;;;;;19.85;72.33;98926.59;5090795;28;20028;-47
2023/10/13 01:27:17;;;;;;;11.35;9.30;;;;;;;19.84;72.13;98919.66;5091738;28;20486;-47
2023/10/13 01:29:50;;;;;;;11.13;8.85;;;;;;;19.76;71.95;98923.63;5091906;28;20044;-47
2023/10/13 01:32:18;;;;;;;11.25;10.05;;;;;;;19.68;73.05;98918.69;5091729;28;20107;-47
2023/10/13 01:34:47;;;;;;;10.05;9.07;;;;;;;19.50;73.88;98919.91;5091824;28;20017;-47
2023/10/13 01:37:15;;;;;;;11.90;8.98;;;;;;;19.39;75.14;98916.34;5090470;28;20024;-47
2023/10/13 01:39:41;;;;;;;14.50;10.20;;;;;;;19.45;75.99;98917.19;5091776;28;20020;-46
2023/10/13 01:42:07;;;;;;;14.23;9.52;;;;;;;19.45;76.01;98917.19;5091728;28;20031;-47
2023/10/13 01:44:33;;;;;;;10.75;9.65;;;;;;;19.50;75.64;98907.41;5090436;28;20024;-46
2023/10/13 01:47:09;;;;;;;10.52;9.40;;;;;;;19.54;75.83;98908.50;5090236;28;20094;-47
2023/10/13 01:49:47;;;;;;;15.73;12.15;;;;;;;19.68;74.23;98908.88;5091841;28;20032;-47
2023/10/13 01:52:17;;;;;;;14.93;13.48;;;;;;;19.65;73.97;98897.94;5090732;28;20458;-46
2023/10/13 01:54:44;;;;;;;13.15;10.30;;;;;;;19.60;74.56;98901.34;5090340;28;20485;-47
2023/10/13 01:57:14;;;;;;;11.93;10.70;;;;;;;19.57;74.63;98899.19;5091557;28;20370;-47
2023/10/13 02:00:04;;;;;;;11.00;9.05;;;;;;;19.56;74.73;98902.94;5090206;28;20027;-47
2023/10/13 02:02:30;;;;;;;11.85;9.30;;;;;;;19.58;74.66;98895.47;5091606;28;20024;-46
2023/10/13 02:04:57;;;;;;;13.27;9.93;;;;;;;19.54;74.70;98897.06;5090168;28;20554;-46
2023/10/13 02:07:29;;;;;;;17.95;11.85;;;;;;;19.49;75.22;98894.34;5091487;28;20498;-47
2023/10/13 02:09:56;;;;;;;18.33;10.15;;;;;;;19.53;75.34;98896.22;5091536;28;20498;-47
2023/10/13 02:15:26;;;;;;;11.18;9.27;;;;;;;19.50;75.17;98893.28;5048810;28;20507;-47
2023/10/13 02:17:54;;;;;;;11.23;9.60;;;;;;;19.47;75.11;98883.94;5031900;28;20037;-47
2023/10/13 02:20:23;;;;;;;15.95;9.73;;;;;;;19.45;75.25;98890.56;5048975;28;20090;-47
2023/10/13 02:22:49;;;;;;;12.40;9.70;;;;;;;19.48;75.12;98885.56;5048901;28;20029;-46
2023/10/13 02:28:14;;;;;;;10.75;9.35;;;;;;;19.35;75.14;98884.09;5043837;28;20355;-47
2023/10/13 02:30:50;;;;;;;10.20;9.07;;;;;;;19.40;75.17;98880.69;5052444;28;20037;-47
2023/10/13 02:33:29;;;;;;;10.32;9.43;;;;;;;19.37;75.40;98878.53;5052481;28;20090;-47
2023/10/13 02:36:03;;;;;;;10.63;9.63;;;;;;;19.45;75.16;98885.25;5035622;28;20037;-46
2023/10/13 02:41:18;;;;;;;13.43;9.65;;;;;;;19.41;75.53;98870.84;5052347;28;20025;-47
2023/10/13 02:43:44;;;;;;;12.57;9.20;;;;;;;19.41;75.44;98876.16;5052330;28;20697;-46
2023/10/13 02:46:10;;;;;;;13.90;10.32;;;;;;;19.38;75.36;98866.00;5035424;28;20021;-47
2023/10/13 02:48:42;;;;;;;13.48;10.38;;;;;;;19.33;75.83;98872.91;5060142;28;20035;-47
2023/10/13 02:51:18;;;;;;;16.98;9.68;;;;;;;19.34;75.91;98874.53;5094617;28;20028;-46
2023/10/13 02:53:48;;;;;;;12.52;10.60;;;;;;;19.33;76.05;98877.44;5094639;28;20020;-47
2023/10/13 02:56:20;;;;;;;11.93;10.20;;;;;;;19.36;75.89;98868.94;5094525;28;20032;-47
2023/10/13 02:58:53;;;;;;;11.15;10.00;;;;;;;19.42;75.99;98861.78;5093237;28;20554;-47
2023/10/13 03:01:20;;;;;;;13.35;10.52;;;;;;;19.36;76.08;98860.97;5094374;28;20040;-47
2023/10/13 03:03:55;;;;;;;13.00;10.75;;;;;;;19.26;76.18;98858.22;5094453;28;20016;-46
2023/10/13 03:06:35;;;;;;;14.48;10.57;;;;;;;19.20;76.46;98861.88;5094471;28;20073;-47
2023/10/13 03:09:19;;;;;;;10.75;9.50;;;;;;;19.23;76.69;98866.69;5094250;28;20504;-46
2023/10/13 03:11:48;;;;;;;11.75;10.60;;;;;;;19.20;76.50;98859.22;5094248;28;20576;-46
2023/10/13 03:14:27;;;;;;;15.05;10.65;;;;;;;19.18;76.66;98858.69;5093165;28;20031;-47
2023/10/13 03:17:06;;;;;;;14.20;11.40;;;;;;;19.10;76.96;98857.28;5094176;28;20051;-46
2023/10/13 03:19:36;;;;;;;15.88;11.63;;;;;;;19.02;76.84;98857.72;5093775;28;20089;-47
2023/10/13 03:22:09;;;;;;;17.70;10.45;;;;;;;19.02;77.37;98863.03;5094270;28;20378;-47
2023/10/13 03:24:45;;;;;;;16.13;11.50;;;;;;;18.99;77.44;98855.56;5093996;28;20035;-47
2023/10/13 03:27:15;;;;;;;15.05;11.35;;;;;;;19.09;77.03;98850.34;5093910;28;20028;-46
2023/10/13 03:29:44;;;;;;;12.25;10.82;;;;;;;19.07;76.99;98853.25;5093909;28;20020;-47
2023/10/13 03:32:11;;;;;;;13.23;11.32;;;;;;;19.04;77.09;98856.41;5092410;28;20052;-47
2023/10/13 03:34:41;;;;;;;13.80;11.60;;;;;;;18.96;77.46;98862.19;5093723;28;20020;-47
2023/10/13 03:37:18;;;;;;;11.93;10.55;;;;;;;18.97;77.55;98858.47;5093228;28;20561;-47
2023/10/13 03:39:45;;;;;;;13.35;11.73;;;;;;;18.93;77.99;98858.19;5093747;28;20024;-47
2023/10/13 03:42:21;;;;;;;16.05;12.02;;;;;;;18.96;77.89;98857.66;5093565;28;20103;-46
2023/10/13 03:44:47;;;;;;;15.63;11.15;;;;;;;18.94;77.79;98859.78;5093588;28;20078;-47
2023/10/13 03:47:26;;;;;;;14.20;11.18;;;;;;;18.89;77.95;98854.38;5092149;28;20024;-47
2023/10/13 03:50:14;;;;;;;15.60;10.98;;;;;;;18.96;77.67;98860.31;5093447;28;20031;-47
2023/10/13 03:52:39;;;;;;;12.73;11.43;;;;;;;18.86;77.66;98864.75;5093300;28;20412;-46
2023/10/13 03:55:06;;;;;;;13.40;11.35;;;;;;;18.84;77.92;98862.34;5092011;28;20028;-47
2023/10/13 03:57:38;;;;;;;19.45;12.25;;;;;;;18.78;77.89;98865.97;5093326;28;20024;-47
2023/10/13 04:00:09;;;;;;;13.95;12.02;;;;;;;18.79;78.13;98858.78;5093246;28;20152;-47
2023/10/13 04:02:36;;;;;;;16.95;11.25;;;;;;;18.83;78.36;98862.56;5093343;28;20051;-46
2023/10/13 04:05:09;;;;;;;15.30;11.07;;;;;;;18.93;77.83;98852.88;5093113;28;20440;-47
2023/10/13 04:11:49;;;;;;;13.07;10.80;;;;;;;18.84;77.56;98853.56;5093313;28;20073;-47
2023/10/13 04:18:50;;;;;;;13.40;11.38;;;;;;;18.83;77.53;98852.72;5092733;28;20128;-47
2023/10/13 04:21:39;;;;;;;14.80;11.40;;;;;;;18.84;77.45;98842.91;5092957;28;20024;-47
2023/10/13 04:32:38;;;;;;;21.35;17.33;;;;;;;18.75;78.07;98851.31;5092777;28;20412;-46
2023/10/13 04:35:18;;;;;;;15.45;11.82;;;;;;;18.95;78.09;98856.06;5092897;28;20492;-47
2023/10/13 04:37:54;;;;;;;12.90;11.55;;;;;;;19.08;76.83;98852.19;5092664;28;20036;-47
2023/10/13 04:40:35;;;;;;;12.80;10.98;;;;;;;19.03;76.59;98859.31;5092575;28;20020;-46
2023/10/13 04:43:04;;;;;;;13.43;10.75;;;;;;;18.99;76.61;98851.03;5092793;28;20032;-47
2023/10/13 04:50:46;;;;;;;12.32;11.02;;;;;;;19.03;77.14;98848.69;5092393;28;20059;-47
2023/10/13 04:53:59;;;;;;;14.23;11.77;;;;;;;18.91;76.10;98847.00;5092371;28;20386;-47
2023/10/13 04:59:35;;;;;;;17.00;11.75;;;;;;;18.68;77.46;98848.03;5072228;28;20039;-46
2023/10/13 05:51:33;;;;;;;;;;;;;;;18.79;76.97;98856.94;5090995;28;20138;-47
2023/10/13 06:29:56;;;;;;;22.97;11.70;;;;;;;19.36;73.77;98879.59;5095299;28;20039;-46
2023/10/13 06:32:25;;;;;;;31.40;12.13;;;;;;;19.35;73.47;98878.78;5094881;28;20115;-46
2023/10/13 06:34:58;;;;;;;15.95;11.25;;;;;;;19.58;72.96;98879.50;5094791;28;20524;-46
2023/10/13 06:37:32;;;;;;;14.13;11.23;;;;;;;19.61;71.99;98888.84;5094926;28;20032;-46
2023/10/13 06:40:06;;;;;;;16.42;11.57;;;;;;;19.47;72.02;98870.63;5094884;28;20497;-46
2023/10/13 06:42:42;;;;;;;20.60;11.93;;;;;;;19.51;72.01;98874.38;5094902;28;20081;-46
2023/10/13 06:45:09;;;;;;;20.58;11.48;;;;;;;19.49;71.91;98871.16;5109367;28;20317;-46
2023/10/13 06:47:42;;;;;;;17.25;11.57;;;;;;;19.49;71.72;98875.69;5093441;28;20024;-46
2023/10/13 06:50:24;;;;;;;16.83;11.32;;;;;;;19.64;71.57;98878.50;5094693;28;20042;-46
2023/10/13 06:52:50;;;;;;;16.70;11.50;;;;;;;20.03;70.78;98880.91;5094565;28;20473;-46
2023/10/13 06:55:35;;;;;;;15.38;11.05;;;;;;;20.65;69.52;98882.03;5094553;28;20028;-46
2023/10/13 06:58:01;;;;;;;14.00;10.43;;;;;;;21.69;66.64;98887.28;5094446;28;20032;-46
2023/10/13 07:00:34;;;;;;;13.43;9.77;;;;;;;22.65;63.23;98889.22;5094462;28;20024;-46
2023/10/13 07:03:13;;;;;;;13.68;9.70;;;;;;;23.16;60.63;98882.78;5094679;28;20059;-46
2023/10/13 07:05:44;;;;;;;14.57;9.85;;;;;;;23.33;59.15;98884.00;5094508;28;20074;-47
2023/10/13 07:08:19;;;;;;;12.15;9.98;;;;;;;23.45;58.58;98875.63;5094295;28;20050;-47
2023/10/13 07:11:02;;;;;;;11.20;9.68;;;;;;;23.80;57.09;98881.78;5093221;28;20504;-46
2023/10/13 07:13:29;;;;;;;48.42;18.60;;;;;;;24.29;56.42;98885.31;5093186;28;20103;-47
2023/10/13 07:16:00;;;;;;;25.45;11.77;;;;;;;24.94;53.91;98890.16;5075946;28;20024;-47
2023/10/13 07:18:26;;;;;;;31.15;12.18;;;;;;;24.92;51.79;98882.38;5093865;28;20100;-47
2023/10/13 07:20:57;;;;;;;11.18;9.98;;;;;;;24.48;52.88;98893.41;5093965;28;20088;-46
2023/10/13 07:23:24;;;;;;;13.43;10.10;;;;;;;24.32;52.86;98898.13;5093900;28;20036;-47
2023/10/13 07:26:02;;;;;;;15.00;9.40;;;;;;;24.27;53.29;98911.63;5093821;28;20073;-47
2023/10/13 07:28:30;;;;;;;18.02;9.85;;;;;;;24.20;53.63;98909.25;5093904;28;20112;-47
2023/10/13 07:33:25;;;;;;;31.35;11.52;;;;;;;24.25;53.99;98897.69;5093786;28;20409;-46
2023/10/13 07:36:18;;;;;;;11.20;9.52;;;;;;;24.95;52.31;98905.19;5093750;28;20028;-46
2023/10/13 07:38:59;;;;;;;17.90;9.70;;;;;;;25.27;50.53;98912.53;5093768;28;20143;-46
2023/10/13 07:41:30;;;;;;;12.15;9.25;;;;;;;25.30;50.05;98900.41;5093676;28;20057;-47
2023/10/13 07:43:59;;;;;;;23.25;10.35;;;;;;;25.37;49.88;98895.44;5093635;28;20016;-46
2023/10/13 07:46:31;;;;;;;13.05;9.43;;;;;;;25.70;49.43;98904.31;5093491;28;20461;-47
2023/10/13 07:49:08;;;;;;;13.30;9.35;;;;;;;26.14;48.55;98898.75;5092461;28;20036;-47
2023/10/13 07:51:44;;;;;;;10.98;8.73;;;;;;;26.83;45.89;98890.66;5093430;28;20020;-47
2023/10/13 07:54:21;;;;;;;13.15;9.65;;;;;;;26.66;45.89;98902.88;5093431;28;20043;-47
2023/10/13 07:56:50;;;;;;;26.90;10.45;;;;;;;26.75;46.15;98897.56;5092342;28;20029;-47
2023/10/13 07:59:16;;;;;;;10.70;8.38;;;;;;;27.21;44.70;98896.53;5093280;28;20012;-47
2023/10/13 08:01:43;;;;;;;11.30;9.43;;;;;;;27.37;44.09;98890.81;5093190;28;20028;-47
2023/10/13 08:06:36;;;;;;;15.35;8.38;;;;;;;27.38;43.39;98884.31;5093624;28;20031;-47
2023/10/13 08:09:09;;;;;;;17.73;9.35;;;;;;;27.39;43.91;98902.09;5091807;28;20520;-47
2023/10/13 08:11:38;;;;;;;12.25;9.02;;;;;;;28.00;43.55;98897.88;5093332;28;20387;-47
2023/10/13 08:19:39;;;;;;;9.70;8.73;;;;;;;27.34;43.14;98907.59;5092666;28;20125;-47
2023/10/13 08:27:34;;;;;;;14.13;8.68;;;;;;;28.30;41.80;98895.44;5091851;28;20039;-47
2023/10/13 08:37:46;;;;;;;13.63;7.90;;;;;;;28.96;39.44;98881.16;5092645;28;20031;-47
2023/10/13 08:48:14;;;;;;;11.75;8.27;;;;;;;29.46;37.72;98884.16;5092399;28;20024;-47
2023/10/13 08:53:31;;;;;;;13.18;8.10;;;;;;;30.34;36.86;98889.31;5092321;28;20046;-47
2023/10/13 08:56:14;;;;;;;15.00;8.15;;;;;;;30.50;35.70;98881.44;5092281;28;20039;-47
2023/10/13 09:06:46;;;;;;;;;;;;;;;29.80;36.22;98879.00;5092453;28;20493;-47
2023/10/13 09:09:34;;;;;;;25.25;8.70;;;;;;;29.28;37.57;98877.97;5092062;28;19916;-47
2023/10/13 09:13:00;;;;;;;11.30;7.65;;;;;;;29.18;37.11;98886.41;5090700;28;20617;-47
2023/10/13 09:14:57;;;;;;;12.90;7.70;;;;;;;29.00;38.00;98871.28;5088744;28;20465;-47
2023/10/13 09:20:32;;;;;;;17.90;7.65;;;;;;;29.15;37.38;98862.72;5091788;28;20075;-47
2023/10/13 09:25:38;;;;;;;31.38;16.48;;;;;;;29.06;37.58;98856.50;5091817;28;20450;-47
2023/10/13 09:28:14;;;;;;;17.38;8.43;;;;;;;29.13;37.20;98858.75;5090561;28;20081;-47
2023/10/13 09:30:53;;;;;;;15.13;9.07;;;;;;;29.04;37.72;98856.81;5091715;28;20081;-47
2023/10/13 09:33:29;;;;;;;16.85;6.97;;;;;;;30.15;36.52;98854.53;5093638;28;20024;-47
2023/10/13 09:35:59;;;;;;;13.68;6.68;;;;;;;30.49;35.24;98852.78;5098452;28;20085;-47
2023/10/13 09:38:28;;;;;;;15.90;6.63;;;;;;;30.27;35.13;98854.63;5098401;28;20027;-47
2023/10/13 09:40:57;;;;;;;11.90;5.80;;;;;;;30.27;35.13;98860.03;5097151;28;20027;-47
2023/10/13 09:43:28;;;;;;;21.60;7.78;;;;;;;30.49;34.93;98847.34;5098434;28;20398;-47
2023/10/13 09:46:15;;;;;;;15.95;5.38;;;;;;;30.36;34.26;98841.84;5098348;28;20034;-47
2023/10/13 09:48:46;;;;;;;12.98;5.18;;;;;;;29.98;35.14;98831.84;5098400;28;20023;-47
2023/10/13 09:51:14;;;;;;;7.88;4.93;;;;;;;29.89;35.45;98833.78;5098398;28;20080;-47
2023/10/13 09:53:47;;;;;;;13.52;5.35;;;;;;;29.93;35.23;98823.09;5097268;28;20024;-47
2023/10/13 09:56:27;;;;;;;14.98;6.72;;;;;;;29.85;35.58;98830.94;5098323;28;20040;-47
2023/10/13 09:59:12;;;;;;;9.70;5.55;;;;;;;29.93;35.90;98825.81;5098302;28;20024;-47
2023/10/13 10:01:57;;;;;;;12.70;5.03;;;;;;;29.60;36.11;98819.06;5098228;28;20115;-47
2023/10/13 10:04:23;;;;;;;12.10;5.78;;;;;;;29.20;36.71;98815.81;5096999;28;20019;-47
2023/10/13 10:06:57;;;;;;;12.75;5.28;;;;;;;28.99;37.22;98804.84;5096744;28;20063;-47
2023/10/13 10:09:37;;;;;;;14.80;5.30;;;;;;;28.84;36.66;98827.75;5097259;28;20050;-47
2023/10/13 10:12:39;;;;;;;7.95;5.10;;;;;;;28.73;36.85;98819.16;5098145;28;20036;-47
2023/10/13 10:15:28;;;;;;;8.48;4.57;;;;;;;28.65;37.16;98812.66;5098153;28;20024;-47
2023/10/13 10:17:54;;;;;;;8.95;5.00;;;;;;;28.79;37.61;98823.28;5097820;28;20032;-47
2023/10/13 10:20:41;;;;;;;14.77;5.30;;;;;;;28.92;37.27;98818.84;5098149;28;20054;-47
2023/10/13 10:23:17;;;;;;;6.50;4.70;;;;;;;28.90;36.96;98804.84;5098098;28;20027;-47
2023/10/13 10:25:46;;;;;;;9.43;5.97;;;;;;;29.00;36.69;98836.16;5097965;28;20039;-47
2023/10/13 10:28:15;;;;;;;22.42;6.00;;;;;;;29.27;36.41;98818.81;5098306;28;20474;-47
2023/10/13 10:30:42;;;;;;;9.40;4.60;;;;;;;29.46;36.14;98830.06;5097968;28;20119;-48
2023/10/13 10:33:12;;;;;;;15.77;5.93;;;;;;;29.12;36.18;98819.31;5079861;28;20024;-48
2023/10/13 10:35:40;;;;;;;12.95;5.38;;;;;;;28.92;36.79;98818.84;5096752;28;20115;-47
2023/10/13 10:38:32;;;;;;;15.95;5.07;;;;;;;28.76;36.47;98823.13;5098022;28;20027;-48
2023/10/13 10:41:00;;;;;;;10.32;4.78;;;;;;;28.65;37.26;98807.25;5098017;28;20055;-45
2023/10/13 10:43:42;;;;;;;8.10;4.65;;;;;;;28.92;36.64;98826.16;5097925;28;20024;-46
2023/10/13 10:46:18;;;;;;;8.35;5.05;;;;;;;29.35;36.84;98806.41;5093781;28;20123;-45
2023/10/13 10:48:47;;;;;;;9.25;4.68;;;;;;;29.73;35.90;98794.88;5094635;28;20024;-45
2023/10/13 10:53:44;;;;;;;17.48;5.80;;;;;;;29.49;35.40;98823.22;5094585;28;20497;-45
2023/10/13 10:56:20;;;;;;;11.90;5.30;;;;;;;29.50;35.50;98813.19;5093293;28;20058;-45
2023/10/13 10:58:56;;;;;;;10.82;5.25;;;;;;;29.54;35.87;98814.94;5093240;28;20028;-46
2023/10/13 11:01:33;;;;;;;13.75;5.25;;;;;;;29.80;35.76;98812.19;5094492;28;20410;-46
2023/10/13 11:04:24;;;;;;;12.77;6.00;;;;;;;30.02;35.55;98811.13;5094421;28;20039;-46
2023/10/13 11:06:58;;;;;;;17.05;5.53;;;;;;;30.59;34.73;98803.63;5094317;28;20032;-45
2023/10/13 11:09:36;;;;;;;11.60;5.40;;;;;;;30.77;33.74;98810.50;5093098;28;20043;-46
2023/10/13 11:12:26;;;;;;;7.03;4.85;;;;;;;30.50;34.54;98802.88;5094326;28;20032;-46
2023/10/13 11:15:02;;;;;;;10.75;5.35;;;;;;;30.50;34.06;98781.22;5094248;28;20032;-46
2023/10/13 11:17:48;;;;;;;11.82;5.28;;;;;;;29.88;35.16;98786.19;5092923;28;20134;-46
2023/10/13 11:20:17;;;;;;;12.10;5.63;;;;;;;29.74;35.25;98780.19;5094100;28;20040;-46
2023/10/13 11:22:53;;;;;;;19.52;5.93;;;;;;;29.82;34.80;98771.25;5094056;28;20016;-46
2023/10/13 11:25:34;;;;;;;13.57;6.35;;;;;;;29.94;35.08;98757.84;5092711;28;20086;-46
2023/10/13 11:28:20;;;;;;;15.48;4.68;;;;;;;30.00;34.77;98753.81;5094038;28;20060;-46
2023/10/13 11:30:50;;;;;;;13.52;5.70;;;;;;;29.74;35.13;98761.25;5093707;28;20111;-45
2023/10/13 11:33:23;;;;;;;9.00;4.43;;;;;;;29.89;34.57;98732.88;5092700;28;20032;-46
2023/10/13 11:38:26;;;;;;;14.48;9.52;;;;;;;29.44;35.57;98761.22;5093833;28;20505;-46
2023/10/13 11:43:35;;;;;;;10.15;4.95;;;;;;;29.44;35.64;98737.66;5093748;28;20035;-45
2023/10/13 11:48:41;;;;;;;11.48;4.72;;;;;;;29.52;35.86;98751.47;5093634;28;20024;-46
2023/10/13 11:51:23;;;;;;;22.67;5.47;;;;;;;29.32;35.66;98736.75;5093766;28;20026;-46
2023/10/13 11:53:52;;;;;;;24.80;5.78;;;;;;;29.26;35.94;98747.75;5093816;28;20055;-46
2023/10/13 11:56:22;;;;;;;27.38;5.60;;;;;;;29.45;35.77;98741.16;5091602;28;20111;-46
2023/10/13 11:58:49;;;;;;;8.23;4.57;;;;;;;29.62;35.15;98737.56;5093376;28;20016;-46
2023/10/13 12:11:46;;;;;;;9.73;4.47;;;;;;;29.58;35.14;98713.13;5093116;28;20040;-45
2023/10/13 12:14:27;;;;;;;14.20;4.82;;;;;;;29.61;35.05;98714.38;5091700;28;20065;-45
2023/10/13 12:16:55;;;;;;;10.20;5.75;;;;;;;29.26;35.68;98706.41;5093051;28;20067;-46
2023/10/13 12:19:23;;;;;;;9.48;4.22;;;;;;;29.37;35.26;98675.19;5092639;28;20040;-46
2023/10/13 12:21:49;;;;;;;20.65;5.47;;;;;;;29.18;35.82;98724.25;5092858;28;20020;-45
2023/10/13 12:24:39;;;;;;;9.95;4.07;;;;;;;29.35;36.02;98714.47;5092864;28;20020;-46
2023/10/13 12:27:19;;;;;;;27.42;5.80;;;;;;;29.34;36.02;98694.78;5092699;28;20031;-45
2023/10/13 12:29:48;;;;;;;9.60;4.75;;;;;;;29.54;35.59;98685.13;5091470;28;20028;-46
2023/10/13 12:32:20;;;;;;;9.85;4.13;;;;;;;29.82;35.17;98698.19;5092970;28;20016;-46
2023/10/13 12:34:57;;;;;;;13.23;4.88;;;;;;;30.00;35.05;98688.06;5092740;28;20111;-46
2023/10/13 12:53:48;;;;;;;9.85;4.65;;;;;;;28.34;36.67;98650.00;5091534;28;20038;-45
2023/10/13 12:56:15;;;;;;;9.38;4.85;;;;;;;28.16;37.65;98646.50;5092534;28;20481;-45
2023/10/13 12:58:41;;;;;;;14.52;5.18;;;;;;;28.05;37.56;98646.00;5092273;28;20016;-45
2023/10/13 13:01:08;;;;;;;11.43;5.05;;;;;;;27.85;38.12;98642.81;5092113;28;20512;-46
2023/10/13 13:03:34;;;;;;;8.23;4.70;;;;;;;27.92;37.89;98671.25;5090868;28;20034;-46
2023/10/13 13:06:07;;;;;;;14.55;5.20;;;;;;;27.79;37.81;98605.50;5090741;28;20024;-45
2023/10/13 13:08:35;;;;;;;14.15;5.35;;;;;;;27.68;38.61;98632.75;5091563;28;20028;-46
2023/10/13 13:11:04;;;;;;;20.30;6.00;;;;;;;27.77;38.08;98623.88;5090917;28;20043;-46
2023/10/13 13:13:31;;;;;;;30.55;5.82;;;;;;;27.49;39.00;98622.28;5090891;28;20024;-45
2023/10/13 13:15:57;;;;;;;15.45;5.25;;;;;;;27.30;39.45;98608.25;5091983;28;20028;-45
2023/10/13 13:18:23;;;;;;;11.80;5.03;;;;;;;27.03;39.67;98617.34;5091749;28;20044;-46
2023/10/13 13:20:55;;;;;;;11.48;4.63;;;;;;;27.03;40.08;98614.66;5091946;28;20016;-46
2023/10/13 13:23:26;;;;;;;17.70;5.35;;;;;;;26.88;39.89;98573.56;5091820;28;20039;-46
2023/10/13 13:25:52;;;;;;;24.92;5.25;;;;;;;26.69;40.60;98619.53;5091837;28;20069;-46
2023/10/13 13:28:18;;;;;;;12.60;6.25;;;;;;;26.54;40.78;98579.53;5090567;28;20106;-46
2023/10/13 13:30:50;;;;;;;11.70;5.18;;;;;;;26.39;41.22;98618.38;5090491;28;20549;-46
2023/10/13 13:33:16;;;;;;;38.45;7.15;;;;;;;26.16;41.27;98624.84;5090538;28;20460;-45
2023/10/13 13:35:48;;;;;;;14.20;6.30;;;;;;;25.84;42.26;98621.25;5091749;28;20078;-48
2023/10/13 13:38:22;;;;;;;19.10;6.07;;;;;;;25.67;42.54;98616.50;5091727;28;20093;-47
2023/10/13 13:40:53;;;;;;;10.40;5.28;;;;;;;25.59;42.94;98628.75;5092015;28;20024;-48
2023/10/13 13:43:37;;;;;;;16.25;6.30;;;;;;;25.54;42.98;98612.75;5091814;28;20532;-48
2023/10/13 13:46:04;;;;;;;9.35;4.75;;;;;;;25.52;42.80;98604.97;5091632;28;20119;-48
2023/10/13 13:48:30;;;;;;;9.80;4.22;;;;;;;25.45;42.69;98603.78;5091640;28;20036;-48
2023/10/13 13:51:04;;;;;;;14.50;5.35;;;;;;;25.37;42.65;98612.56;5091633;28;20033;-48
2023/10/13 13:53:34;;;;;;;13.10;4.65;;;;;;;25.26;42.17;98598.53;5091889;28;20146;-48
2023/10/13 13:56:04;;;;;;;14.55;4.90;;;;;;;25.07;42.74;98618.19;5091608;28;20036;-48
2023/10/13 13:58:30;;;;;;;20.58;6.78;;;;;;;25.04;42.84;98593.81;5091903;28;20524;-48
2023/10/13 14:01:12;;;;;;;12.25;5.68;;;;;;;24.97;43.20;98617.56;5091566;28;20465;-48
2023/10/13 14:03:45;;;;;;;13.45;6.00;;;;;;;24.99;42.80;98597.41;5091621;28;20517;-47
2023/10/13 14:06:26;;;;;;;15.20;5.45;;;;;;;25.04;43.13;98602.66;5090264;28;20032;-48
2023/10/13 14:08:55;;;;;;;17.85;5.70;;;;;;;25.01;43.19;98597.91;5091517;28;20036;-48
2023/10/13 14:14:20;;;;;;;9.20;4.75;;;;;;;25.07;43.26;98595.91;5091586;28;20039;-48
2023/10/13 14:16:47;;;;;;;7.82;5.32;;;;;;;24.98;43.67;98592.34;5091536;28;20036;-48
2023/10/13 14:19:29;;;;;;;11.88;5.38;;;;;;;24.97;43.22;98585.34;5090207;28;20074;-48
2023/10/13 14:21:58;;;;;;;11.23;5.07;;;;;;;25.01;43.48;98583.66;5095313;28;20440;-47
2023/10/13 14:24:33;;;;;;;12.95;5.32;;;;;;;25.00;43.96;98579.41;5093892;28;20064;-48
2023/10/13 14:27:10;;;;;;;14.23;6.63;;;;;;;25.05;43.21;98585.47;5095202;28;20024;-48
2023/10/13 14:29:42;;;;;;;21.88;5.15;;;;;;;25.02;42.99;98561.91;5095181;28;20051;-48
2023/10/13 14:32:13;;;;;;;9.27;5.13;;;;;;;24.95;43.85;98572.25;5095142;28;20028;-48
2023/10/13 14:34:40;;;;;;;13.75;4.85;;;;;;;24.99;43.61;98567.88;5093811;28;20035;-48
2023/10/13 14:37:06;;;;;;;15.30;6.00;;;;;;;24.95;44.21;98564.19;5094950;28;20482;-48
2023/10/13 14:39:35;;;;;;;12.98;4.97;;;;;;;24.98;44.22;98539.41;5094918;28;20020;-48
2023/10/13 14:42:07;;;;;;;18.73;6.07;;;;;;;25.01;43.78;98556.81;5095126;28;20024;-48
2023/10/13 14:44:33;;;;;;;14.25;5.55;;;;;;;24.96;43.98;98573.81;5077074;28;20024;-48
2023/10/13 14:47:00;;;;;;;8.05;5.13;;;;;;;24.92;44.04;98559.41;5094758;28;20554;-45
2023/10/13 14:49:26;;;;;;;14.00;4.75;;;;;;;24.81;44.53;98537.34;5060008;28;20028;-45
2023/10/13 14:51:52;;;;;;;7.93;5.20;;;;;;;24.68;44.52;98512.06;5094977;28;20393;-45
2023/10/13 14:54:25;;;;;;;8.07;4.88;;;;;;;24.67;44.26;98534.66;5094687;28;20021;-45
2023/10/13 14:56:54;;;;;;;9.15;4.78;;;;;;;24.69;44.46;98531.66;5094913;28;20028;-46
2023/10/13 14:59:22;;;;;;;12.38;5.28;;;;;;;24.66;44.68;98557.19;5094587;28;20081;-45
2023/10/13 15:01:49;;;;;;;9.55;4.55;;;;;;;24.61;44.63;98535.00;5093368;28;20028;-45
2023/10/13 15:04:14;;;;;;;15.15;5.22;;;;;;;24.57;44.97;98545.56;5094491;28;20023;-45
2023/10/13 15:06:40;;;;;;;9.68;4.60;;;;;;;24.60;45.05;98549.53;5093042;28;20634;-45
2023/10/13 15:09:10;;;;;;;15.32;6.28;;;;;;;24.60;45.15;98550.31;5094362;28;20443;-45
2023/10/13 15:11:37;;;;;;;13.23;6.40;;;;;;;24.63;45.23;98530.16;5094336;28;20043;-45
2023/10/13 15:14:06;;;;;;;22.45;10.13;;;;;;;24.59;45.14;98539.88;5092988;28;20023;-45
2023/10/13 15:16:33;;;;;;;12.13;4.97;;;;;;;24.59;45.55;98559.47;5094181;28;20117;-45
2023/10/13 15:18:59;;;;;;;10.40;5.03;;;;;;;24.37;46.11;98557.41;5093912;28;20517;-45
2023/10/13 15:21:35;;;;;;;8.02;4.70;;;;;;;24.27;46.40;98571.00;5094035;28;20497;-45